Time;durP1;ratioP1;P1;durP2;ratioP2;P2;SDS_P1;SDS_P2;PMS_P1;PMS_P2;Temp;Humidity;BMP_temperature;BMP_pressure;BME280_temperature;BME280_humidity;BME280_pressure;Samples;Min_cycle;Max_cycle;Signal;HPM_P1;HPM_P2
2022/06/05 00:01:34;;;;;;;876.80;827.00;;;19.40;99.90;;;19.61;100.00;100572.09;5054017;28;20229;-61
2022/06/05 00:04:35;;;;;;;869.92;822.05;;;19.40;99.90;;;19.58;100.00;100585.59;5056226;28;20206;-61
2022/06/05 00:07:39;;;;;;;870.88;823.25;;;19.40;99.90;;;19.57;100.00;100606.16;5059660;28;20209;-61
2022/06/05 00:10:13;;;;;;;864.08;816.28;;;19.40;99.90;;;19.58;100.00;100626.72;5068536;28;20243;-61
2022/06/05 00:13:13;;;;;;;896.55;845.65;;;19.40;99.90;;;19.65;100.00;100631.00;5035507;28;20214;-61
2022/06/05 00:15:42;;;;;;;895.55;843.65;;;19.40;99.90;;;19.66;100.00;100629.22;5052099;28;20205;-61
2022/06/05 00:18:11;;;;;;;897.90;847.15;;;19.40;99.90;;;19.72;100.00;100629.94;5032719;28;20201;-61
2022/06/05 00:20:42;;;;;;;900.72;849.25;;;19.40;99.90;;;19.68;100.00;100630.94;5059644;28;20217;-61
2022/06/05 00:23:11;;;;;;;892.10;841.85;;;19.40;99.90;;;19.66;100.00;100634.56;5050001;28;20213;-62
2022/06/05 00:26:02;;;;;;;885.13;836.78;;;19.40;99.90;;;19.67;100.00;100622.91;5040777;28;20198;-61
2022/06/05 00:28:58;;;;;;;892.70;842.40;;;19.40;99.90;;;19.70;100.00;100622.84;5059983;28;20205;-61
2022/06/05 00:31:44;;;;;;;887.80;837.75;;;19.40;99.90;;;19.68;100.00;100632.72;5050342;28;20225;-61
2022/06/05 00:34:12;;;;;;;880.40;831.25;;;19.40;99.90;;;19.66;100.00;100632.78;5062619;28;20208;-61
2022/06/05 00:36:49;;;;;;;892.55;843.20;;;19.40;99.90;;;19.58;100.00;100634.75;5027385;28;20221;-61
2022/06/05 00:39:31;;;;;;;882.08;832.83;;;19.40;99.90;;;19.63;100.00;100634.66;5073703;28;20206;-61
2022/06/05 00:42:10;;;;;;;879.38;830.88;;;19.40;99.90;;;19.54;100.00;100624.16;5059660;28;20240;-60
2022/06/05 00:44:47;;;;;;;897.20;847.33;;;19.40;99.90;;;19.28;100.00;100636.31;5043731;28;20190;-61
2022/06/05 00:47:19;;;;;;;886.70;837.67;;;19.30;99.90;;;19.19;100.00;100640.09;5061163;28;20226;-61
2022/06/05 00:49:55;;;;;;;905.45;854.33;;;19.10;99.90;;;19.21;100.00;100631.13;5069665;28;20206;-61
2022/06/05 00:52:27;;;;;;;855.72;808.30;;;19.10;99.90;;;19.33;100.00;100637.09;5051714;28;20213;-61
2022/06/05 00:54:56;;;;;;;848.65;802.45;;;19.10;99.90;;;19.28;100.00;100632.75;5063954;28;20201;-61
2022/06/05 00:57:31;;;;;;;859.80;812.72;;;19.20;99.90;;;19.14;100.00;100644.69;5048876;28;20217;-61
2022/06/05 01:00:21;;;;;;;868.97;820.22;;;19.10;99.90;;;19.07;100.00;100667.19;5028937;28;20589;-61
2022/06/05 01:02:53;;;;;;;881.33;832.15;;;19.10;99.90;;;19.13;100.00;100674.19;5077328;28;20255;-61
2022/06/05 01:05:25;;;;;;;874.33;825.92;;;19.00;99.90;;;19.21;100.00;100674.91;5056940;28;20213;-61
2022/06/05 01:07:53;;;;;;;862.20;815.88;;;19.10;99.90;;;19.12;100.00;100665.28;5058542;28;20212;-60
2022/06/05 01:11:03;;;;;;;882.97;833.85;;;19.10;99.90;;;19.07;100.00;100671.66;5046855;28;20221;-61
2022/06/05 01:13:32;;;;;;;865.92;817.55;;;19.00;99.90;;;19.06;100.00;100686.88;5058292;28;20210;-60
2022/06/05 01:16:21;;;;;;;868.55;820.92;;;19.00;99.90;;;19.05;100.00;100714.59;5058946;28;20201;-60
2022/06/05 01:19:09;;;;;;;860.92;813.28;;;19.00;99.90;;;18.93;100.00;100747.00;5063763;28;20198;-60
2022/06/05 01:22:10;;;;;;;850.90;805.30;;;19.00;99.90;;;18.92;100.00;100787.22;5078233;28;20225;-60
2022/06/05 01:25:11;;;;;;;864.42;816.50;;;18.90;99.90;;;18.84;100.00;100790.94;5041039;28;20202;-60
2022/06/05 01:27:44;;;;;;;858.08;810.70;;;18.90;99.90;;;18.79;100.00;100803.53;5052589;28;20193;-60
2022/06/05 01:30:20;;;;;;;865.10;816.83;;;18.80;99.90;;;18.82;100.00;100803.50;5023314;28;20601;-61
2022/06/05 01:33:17;;;;;;;863.83;815.15;;;18.80;99.90;;;18.85;100.00;100792.72;5052872;28;20229;-60
2022/06/05 01:36:14;;;;;;;866.63;817.88;;;18.80;99.90;;;19.01;100.00;100779.00;5057099;28;20208;-60
2022/06/05 01:39:06;;;;;;;871.47;822.03;;;18.80;99.90;;;19.09;100.00;100769.91;5066368;28;20227;-61
2022/06/05 01:41:53;;;;;;;887.40;836.85;;;18.90;99.90;;;19.15;100.00;100764.41;5038351;28;20697;-61
2022/06/05 01:44:31;;;;;;;876.20;826.95;;;18.90;99.90;;;19.10;100.00;100770.78;5051680;28;20212;-61
2022/06/05 01:47:05;;;;;;;887.38;835.30;;;19.00;99.90;;;18.99;100.00;100770.13;5037808;28;20210;-61
2022/06/05 01:49:44;;;;;;;892.65;841.70;;;19.00;99.90;;;18.94;100.00;100788.09;5053678;28;20210;-60
2022/06/05 01:52:20;;;;;;;884.85;834.70;;;18.90;99.90;;;18.89;100.00;100788.19;5033903;28;20206;-60
2022/06/05 01:54:56;;;;;;;894.15;842.58;;;18.90;99.90;;;18.93;100.00;100779.16;5052733;28;20224;-60
2022/06/05 01:57:26;;;;;;;899.15;847.05;;;18.90;99.90;;;18.88;100.00;100769.44;5055189;28;20202;-61
2022/06/05 02:00:12;;;;;;;892.03;840.97;;;18.90;99.90;;;18.94;100.00;100772.00;5017728;28;20205;-61
2022/06/05 02:03:17;;;;;;;874.22;825.50;;;18.80;99.90;;;18.86;100.00;100740.00;5048660;28;20222;-61
2022/06/05 02:05:52;;;;;;;864.42;816.45;;;18.80;99.90;;;18.86;100.00;100707.84;5038760;28;20217;-61
2022/06/05 02:08:42;;;;;;;880.33;829.88;;;18.80;99.90;;;18.80;100.00;100674.03;5039547;28;20210;-61
2022/06/05 02:11:21;;;;;;;879.33;829.53;;;18.70;99.90;;;18.80;100.00;100649.03;5019032;28;20233;-61
2022/06/05 02:13:55;;;;;;;888.83;838.40;;;18.70;99.90;;;18.69;100.00;100618.91;5069600;28;20223;-61
2022/06/05 02:16:24;;;;;;;892.00;840.60;;;18.60;99.90;;;18.61;100.00;100608.34;5049634;28;20201;-61
2022/06/05 02:18:53;;;;;;;892.63;840.40;;;18.50;99.90;;;18.54;100.00;100598.63;5051042;28;20213;-60
2022/06/05 02:21:30;;;;;;;887.45;834.50;;;18.50;99.90;;;18.53;100.00;100591.53;5036883;28;20225;-60
2022/06/05 02:24:12;;;;;;;876.55;826.13;;;18.40;99.90;;;18.54;100.00;100569.19;5056401;28;20232;-60
2022/06/05 02:26:41;;;;;;;885.08;833.85;;;18.40;99.90;;;18.51;100.00;100559.41;5037656;28;20202;-60
2022/06/05 02:29:24;;;;;;;878.10;826.65;;;18.40;99.90;;;18.56;100.00;100553.97;5023720;28;20593;-60
2022/06/05 02:32:01;;;;;;;878.95;827.85;;;18.40;99.90;;;18.59;100.00;100564.59;5025892;28;20918;-61
2022/06/05 02:35:23;;;;;;;883.95;832.13;;;18.40;99.90;;;18.60;100.00;100573.53;5048043;28;20209;-60
2022/06/05 02:38:12;;;;;;;879.97;828.28;;;18.40;99.90;;;18.67;100.00;100586.78;5055749;28;20206;-61
2022/06/05 02:41:17;;;;;;;888.17;835.75;;;18.50;99.90;;;18.77;100.00;100566.03;5035077;28;20225;-61
2022/06/05 02:44:29;;;;;;;872.65;821.63;;;;;;;18.54;100.00;100521.84;5034323;28;20233;-61
2022/06/05 02:47:02;;;;;;;891.58;838.92;;;18.50;99.90;;;18.48;100.00;100499.69;5038060;28;20209;-61
2022/06/05 02:49:50;;;;;;;890.75;836.88;;;18.40;99.90;;;18.52;100.00;100502.25;5066045;28;20209;-60
2022/06/05 02:52:18;;;;;;;882.95;831.53;;;18.40;99.90;;;18.62;100.00;100513.69;5021041;28;20212;-60
2022/06/05 02:54:57;;;;;;;894.90;841.72;;;18.40;99.90;;;18.66;100.00;100517.16;5054506;28;20672;-61
2022/06/05 02:57:25;;;;;;;890.58;838.03;;;18.50;99.90;;;18.78;100.00;100525.81;5062487;28;20216;-60
2022/06/05 02:59:53;;;;;;;884.50;832.58;;;18.50;99.90;;;18.75;100.00;100509.81;5042698;28;20217;-60
2022/06/05 03:05:09;;;;;;;870.67;820.90;;;18.50;99.90;;;18.76;100.00;100545.50;5053892;28;20622;-61
2022/06/05 03:07:37;;;;;;;874.95;825.35;;;18.50;99.90;;;18.58;100.00;100570.00;5039515;28;20214;-61
2022/06/05 03:10:05;;;;;;;879.35;829.33;;;18.50;99.90;;;18.59;100.00;100588.72;5023390;28;20210;-60
2022/06/05 03:12:36;;;;;;;887.03;834.95;;;18.50;99.90;;;18.65;100.00;100607.38;5048857;28;20216;-61
2022/06/05 03:15:06;;;;;;;880.10;828.20;;;18.50;99.90;;;18.66;100.00;100638.59;5033682;28;20210;-61
2022/06/05 03:17:34;;;;;;;880.60;830.50;;;18.50;99.90;;;18.59;100.00;100650.31;5047191;28;20264;-60
2022/06/05 03:20:04;;;;;;;891.20;837.90;;;18.50;99.90;;;18.55;100.00;100660.22;5016655;28;20217;-61
2022/06/05 03:22:32;;;;;;;888.83;836.80;;;18.50;99.90;;;18.58;100.00;100682.50;5050768;28;20210;-60
2022/06/05 03:25:00;;;;;;;885.78;833.90;;;18.50;99.90;;;18.61;100.00;100693.16;5055282;28;20209;-61
2022/06/05 03:27:30;;;;;;;885.10;834.15;;;18.50;99.90;;;18.59;100.00;100700.31;5038754;28;20200;-61
2022/06/05 03:29:59;;;;;;;869.15;819.90;;;18.50;99.90;;;18.67;100.00;100723.41;5045066;28;20193;-60
2022/06/05 03:32:27;;;;;;;874.95;825.00;;;18.60;99.90;;;18.64;100.00;100728.81;5030186;28;20205;-60
2022/06/05 03:34:56;;;;;;;883.80;832.97;;;18.50;99.90;;;18.65;100.00;100748.47;5041316;28;20210;-61
2022/06/05 03:37:24;;;;;;;883.58;831.95;;;18.50;99.90;;;18.61;100.00;100770.81;5041061;28;20216;-61
2022/06/05 03:39:52;;;;;;;879.47;828.63;;;18.50;99.90;;;18.51;100.00;100797.78;5044505;28;20213;-61
2022/06/05 03:42:20;;;;;;;881.53;831.10;;;18.50;99.90;;;18.51;100.00;100840.63;5033858;28;20213;-61
2022/06/05 03:44:48;;;;;;;884.55;833.15;;;18.40;99.90;;;18.48;100.00;100867.47;5055897;28;20241;-61
2022/06/05 03:47:16;;;;;;;884.40;832.55;;;18.40;99.90;;;18.43;100.00;100893.44;5033975;28;20220;-61
2022/06/05 03:49:44;;;;;;;879.20;827.15;;;18.30;99.90;;;18.41;100.00;100903.28;5053437;28;20213;-61
2022/06/05 03:52:12;;;;;;;876.33;826.15;;;18.40;99.90;;;18.37;100.00;100916.75;5036990;28;20210;-61
2022/06/05 03:54:40;;;;;;;878.97;826.88;;;18.30;99.90;;;18.31;100.00;100927.56;5035197;28;20213;-61
2022/06/05 03:57:09;;;;;;;870.75;819.72;;;;;;;18.21;100.00;100919.66;5037690;28;22295;-62
2022/06/05 03:59:37;;;;;;;867.17;817.33;;;18.20;99.90;;;18.21;100.00;100925.00;5020198;28;20216;-61
2022/06/05 04:02:05;;;;;;;868.83;818.92;;;18.20;99.90;;;18.22;100.00;100941.94;5052610;28;20236;-61
2022/06/05 04:04:33;;;;;;;869.90;819.92;;;18.20;99.90;;;18.21;100.00;100948.22;5054269;28;20229;-62
2022/06/05 04:07:01;;;;;;;866.63;817.72;;;18.20;99.90;;;18.19;100.00;100963.38;5054017;28;20209;-61
2022/06/05 04:09:29;;;;;;;880.53;828.60;;;18.20;99.90;;;18.19;100.00;100977.66;5041464;28;20217;-61
2022/06/05 04:11:57;;;;;;;876.30;824.88;;;18.20;99.90;;;18.19;100.00;100974.97;5039182;28;21408;-62
2022/06/05 04:14:25;;;;;;;873.72;822.97;;;18.20;99.90;;;18.20;100.00;100995.53;5044377;28;20211;-61
2022/06/05 04:16:53;;;;;;;873.33;823.08;;;18.20;99.90;;;18.19;100.00;100999.06;5037333;28;20769;-62
2022/06/05 04:19:21;;;;;;;875.92;825.80;;;18.20;99.90;;;18.08;100.00;101001.00;5040538;28;20201;-62
2022/06/05 04:21:49;;;;;;;883.17;829.40;;;18.10;99.90;;;18.08;100.00;101019.75;5018955;28;20221;-62
2022/06/05 04:24:17;;;;;;;885.40;832.50;;;18.10;99.90;;;18.03;100.00;101021.59;5041749;28;20241;-61
2022/06/05 04:26:46;;;;;;;876.75;825.05;;;18.10;99.90;;;18.11;100.00;101021.50;5054411;28;20201;-61
2022/06/05 04:29:14;;;;;;;878.08;827.42;;;18.10;99.90;;;18.13;100.00;101007.19;5026202;28;20210;-61
2022/06/05 04:31:45;;;;;;;878.83;827.50;;;18.10;99.90;;;18.13;100.00;100991.13;5042856;28;20217;-61
2022/06/05 04:34:19;;;;;;;874.17;823.17;;;18.00;99.90;;;18.10;100.00;100988.47;5027782;28;20249;-62
2022/06/05 04:36:47;;;;;;;874.50;822.80;;;18.10;99.90;;;18.12;100.00;101013.44;5020690;28;20579;-62
2022/06/05 04:39:15;;;;;;;875.80;824.05;;;18.10;99.90;;;18.15;100.00;101033.94;5044284;28;20208;-61
2022/06/05 04:41:46;;;;;;;872.72;822.22;;;18.10;99.90;;;18.22;100.00;101024.94;5033551;28;20228;-62
2022/06/05 04:44:17;;;;;;;875.72;824.75;;;18.10;99.90;;;18.17;100.00;101026.75;5037215;28;20232;-62
2022/06/05 04:46:46;;;;;;;862.72;812.55;;;18.10;99.90;;;18.12;100.00;101029.50;5063502;28;20236;-62
2022/06/05 04:49:15;;;;;;;862.67;813.28;;;18.10;99.90;;;18.14;100.00;101027.69;5083586;28;20209;-61
2022/06/05 04:51:44;;;;;;;856.03;809.42;;;;;;;18.14;100.00;101029.47;5031946;28;20224;-61
2022/06/05 04:54:15;;;;;;;866.92;817.67;;;18.10;99.90;;;18.08;100.00;101026.88;5060051;28;20209;-62
2022/06/05 04:56:44;;;;;;;875.35;824.15;;;18.10;99.90;;;18.05;100.00;101030.47;5054198;28;20194;-61
2022/06/05 04:59:13;;;;;;;863.10;813.67;;;18.00;99.90;;;18.05;100.00;101037.63;5036994;28;20200;-61
2022/06/05 05:01:41;;;;;;;877.92;827.03;;;18.00;99.90;;;18.03;100.00;101045.66;5052275;28;20236;-61
2022/06/05 05:04:13;;;;;;;877.53;825.17;;;18.00;99.90;;;18.10;100.00;101059.88;5037744;28;20228;-61
2022/06/05 05:06:44;;;;;;;873.92;822.40;;;18.00;99.90;;;18.07;100.00;101044.72;5034131;28;20210;-61
2022/06/05 05:09:13;;;;;;;883.38;830.95;;;18.00;99.90;;;18.09;100.00;101044.72;5039996;28;20204;-61
2022/06/05 05:11:41;;;;;;;880.08;827.40;;;18.00;99.90;;;18.08;100.00;101032.22;5032493;28;20222;-61
2022/06/05 05:14:11;;;;;;;880.30;826.90;;;18.10;99.90;;;18.15;100.00;101020.53;5067270;28;20221;-61
2022/06/05 05:16:40;;;;;;;869.20;819.40;;;18.00;99.90;;;18.26;100.00;101020.44;5038882;28;20210;-61
2022/06/05 05:19:09;;;;;;;891.22;836.17;;;18.10;99.90;;;18.23;100.00;100974.06;5053015;28;20201;-61
2022/06/05 05:21:37;;;;;;;878.40;826.33;;;18.20;99.90;;;18.28;100.00;100963.28;5049214;28;20229;-61
2022/06/05 05:24:07;;;;;;;877.28;826.05;;;18.20;99.90;;;18.37;100.00;100981.91;5051533;28;20233;-60
2022/06/05 05:26:35;;;;;;;866.53;816.75;;;18.20;99.90;;;18.40;100.00;101000.59;5052999;28;20228;-61
2022/06/05 05:29:05;;;;;;;873.50;824.13;;;18.30;99.90;;;18.36;100.00;100996.19;5038727;28;20197;-60
2022/06/05 05:31:40;;;;;;;896.30;840.35;;;18.30;99.90;;;18.37;100.00;100995.28;5043116;28;20228;-60
2022/06/05 05:34:10;;;;;;;902.45;844.67;;;18.30;99.90;;;18.40;100.00;100987.22;5021964;28;20220;-60
2022/06/05 05:36:38;;;;;;;897.70;841.90;;;18.40;99.90;;;18.45;100.00;100973.75;5038950;28;20224;-60
2022/06/05 05:42:05;;;;;;;895.45;839.08;;;18.40;99.90;;;18.62;100.00;100974.41;5041375;28;20612;-61
2022/06/05 05:44:45;;;;;;;907.50;850.15;;;18.50;99.90;;;18.65;100.00;100963.66;5014417;28;20220;-61
2022/06/05 05:47:24;;;;;;;899.60;841.92;;;18.60;99.90;;;18.71;100.00;100952.84;5024114;28;20210;-61
2022/06/05 05:49:55;;;;;;;910.40;850.45;;;18.60;99.90;;;18.65;100.00;100936.88;5003785;28;20209;-61
2022/06/05 05:52:24;;;;;;;911.65;853.25;;;;;;;18.73;100.00;100918.88;5021969;28;20210;-61
2022/06/05 05:54:54;;;;;;;876.50;819.90;;;18.70;99.90;;;18.80;100.00;100923.22;5020451;28;20213;-61
2022/06/05 05:57:22;;;;;;;903.75;847.05;;;18.70;99.90;;;18.88;100.00;100914.16;5030254;28;20202;-61
2022/06/05 05:59:50;;;;;;;899.75;843.53;;;18.80;99.90;;;18.95;100.00;100899.75;5034509;28;20205;-61
2022/06/05 06:02:21;;;;;;;913.22;856.08;;;18.90;99.90;;;19.00;100.00;100893.38;5034423;28;20212;-61
2022/06/05 06:04:52;;;;;;;921.00;861.80;;;18.90;99.90;;;19.08;100.00;100882.53;5032961;28;20228;-61
2022/06/05 06:07:20;;;;;;;906.33;849.28;;;19.00;99.90;;;19.14;100.00;100877.91;5029960;28;20201;-61
2022/06/05 06:09:49;;;;;;;926.20;863.13;;;;;;;19.08;100.00;100859.28;5032075;28;20209;-61
2022/06/05 06:12:24;;;;;;;919.60;858.90;;;19.00;99.90;;;18.99;100.00;100848.72;5034747;28;20209;-61
2022/06/05 06:14:52;;;;;;;923.45;863.45;;;19.00;99.90;;;19.02;100.00;100855.81;5022897;28;20208;-61
2022/06/05 06:17:21;;;;;;;921.22;861.30;;;19.10;99.90;;;19.23;100.00;100873.31;5073567;28;21235;-61
2022/06/05 06:19:49;;;;;;;904.15;850.10;;;;;;;19.08;100.00;100847.66;5043486;28;20731;-61
2022/06/05 06:22:19;;;;;;;940.47;878.78;;;19.10;99.90;;;19.16;100.00;100849.28;5027302;28;20212;-61
2022/06/05 06:24:47;;;;;;;922.10;865.15;;;19.20;99.90;;;19.13;100.00;100841.31;5021958;28;20228;-61
2022/06/05 06:27:15;;;;;;;903.58;849.80;;;19.10;99.90;;;19.26;100.00;100866.06;5051877;28;20555;-61
2022/06/05 06:29:44;;;;;;;911.17;854.25;;;;;;;19.35;100.00;100868.56;5032546;28;20244;-61
2022/06/05 06:32:11;;;;;;;921.70;865.45;;;19.20;99.90;;;19.26;100.00;100851.78;5011117;28;20214;-61
2022/06/05 06:34:40;;;;;;;951.20;887.65;;;;;;;19.20;100.00;100817.94;5052945;28;20260;-61
2022/06/05 06:37:08;;;;;;;934.80;876.88;;;;;;;19.27;100.00;100807.97;5023280;28;20216;-61
2022/06/05 06:39:36;;;;;;;940.83;882.10;;;19.20;99.90;;;19.52;100.00;100827.13;5023589;28;20221;-61
2022/06/05 06:42:04;;;;;;;929.90;873.42;;;19.40;99.90;;;19.46;100.00;100812.03;5028445;28;20236;-61
2022/06/05 06:44:32;;;;;;;926.42;871.55;;;19.40;99.90;;;19.63;100.00;100798.31;5025294;28;20230;-61
2022/06/05 06:47:00;;;;;;;949.05;890.03;;;19.60;99.90;;;19.43;100.00;100774.53;5033578;28;20579;-61
2022/06/05 06:49:28;;;;;;;930.50;874.22;;;19.50;99.90;;;19.59;100.00;100785.88;5020186;28;20653;-61
2022/06/05 06:51:57;;;;;;;890.20;833.53;;;19.50;99.90;;;19.51;100.00;100772.59;5035474;28;20233;-62
2022/06/05 06:54:26;;;;;;;851.38;795.72;;;19.60;99.90;;;19.55;100.00;100773.44;5026370;28;20206;-61
2022/06/05 06:56:54;;;;;;;858.20;808.45;;;19.60;99.90;;;19.69;100.00;100782.06;5015530;28;20209;-61
2022/06/05 06:59:24;;;;;;;853.10;797.40;;;19.60;99.90;;;19.76;100.00;100784.56;5037873;28;20217;-61
2022/06/05 07:01:53;;;;;;;862.95;812.55;;;19.70;99.90;;;19.91;100.00;100769.91;5019544;28;20225;-62
2022/06/05 07:04:22;;;;;;;856.72;800.30;;;19.70;99.90;;;19.92;100.00;100750.22;5003696;28;20221;-61
2022/06/05 07:06:51;;;;;;;872.20;820.40;;;19.90;99.90;;;19.92;100.00;100735.91;5031642;28;20205;-62
2022/06/05 07:09:20;;;;;;;891.38;840.53;;;19.90;99.90;;;19.92;100.00;100722.47;5014568;28;20260;-62
2022/06/05 07:11:50;;;;;;;898.83;842.03;;;19.90;99.90;;;19.86;100.00;100712.78;5004595;28;20225;-62
2022/06/05 07:14:19;;;;;;;873.28;823.75;;;20.00;99.90;;;19.58;100.00;100685.75;5033267;28;20292;-62
2022/06/05 07:16:48;;;;;;;910.17;853.55;;;19.80;99.90;;;19.49;100.00;100673.34;5029836;28;20210;-62
2022/06/05 07:19:18;;;;;;;865.33;808.78;;;19.70;99.90;;;19.65;100.00;100692.72;4999317;28;20205;-62
2022/06/05 07:21:47;;;;;;;943.85;879.97;;;19.60;99.90;;;19.61;100.00;100680.28;5048882;28;20245;-63
2022/06/05 07:24:17;;;;;;;890.25;837.10;;;19.70;99.90;;;19.74;100.00;100691.63;5037608;28;20205;-63
2022/06/05 07:26:45;;;;;;;909.22;853.13;;;19.70;99.90;;;19.48;100.00;100671.59;5031838;28;20226;-64
2022/06/05 07:29:14;;;;;;;862.45;809.45;;;19.70;99.90;;;19.55;100.00;100682.25;5020937;28;20205;-63
2022/06/05 07:31:42;;;;;;;868.97;815.10;;;19.70;99.90;;;19.56;100.00;100682.22;5045411;28;20231;-63
2022/06/05 07:34:10;;;;;;;889.35;834.85;;;19.80;99.90;;;19.32;100.00;100648.75;5044296;28;20211;-62
2022/06/05 07:36:38;;;;;;;884.25;829.85;;;19.70;99.90;;;19.40;100.00;100652.13;5022519;28;20213;-63
2022/06/05 07:39:06;;;;;;;920.85;865.10;;;19.60;99.90;;;19.19;100.00;100623.13;5008382;28;20673;-62
2022/06/05 07:41:36;;;;;;;880.55;827.20;;;19.50;99.90;;;19.47;100.00;100651.06;5041128;28;20234;-63
2022/06/05 07:44:06;;;;;;;868.90;818.75;;;19.60;99.90;;;19.73;100.00;100654.97;5004779;28;20206;-63
2022/06/05 07:46:36;;;;;;;852.65;802.70;;;19.70;99.90;;;19.64;100.00;100653.41;5030140;28;20673;-63
2022/06/05 07:49:06;;;;;;;866.08;814.15;;;19.90;99.90;;;19.64;100.00;100652.50;5036203;28;20556;-61
2022/06/05 07:54:30;;;;;;;883.28;829.67;;;19.70;99.90;;;19.77;100.00;100628.00;5060100;28;20220;-60
2022/06/05 07:57:05;;;;;;;907.60;853.65;;;19.80;99.90;;;20.56;100.00;100581.13;5032417;28;20205;-60
2022/06/05 07:59:37;;;;;;;899.55;846.35;;;20.00;99.90;;;20.51;100.00;100540.94;5008112;28;20212;-61
2022/06/05 08:02:11;;;;;;;924.63;868.58;;;20.30;99.90;;;20.48;100.00;100532.09;5026534;28;20240;-60
2022/06/05 08:04:41;;;;;;;958.08;900.17;;;20.50;99.90;;;20.71;100.00;100537.66;5028625;28;20216;-60
2022/06/05 08:07:13;;;;;;;923.22;868.65;;;20.60;99.90;;;20.60;100.00;100543.38;5022380;28;20225;-61
2022/06/05 08:09:42;;;;;;;939.80;883.22;;;20.80;99.90;;;20.86;100.00;100526.47;5010943;28;20241;-63
2022/06/05 08:12:13;;;;;;;923.00;869.72;;;20.70;99.90;;;20.83;100.00;100523.88;5057183;28;20225;-63
2022/06/05 08:14:43;;;;;;;975.53;917.40;;;20.80;99.90;;;20.88;100.00;100529.09;5029513;28;20205;-63
2022/06/05 08:17:19;;;;;;;951.58;895.47;;;21.00;99.90;;;20.99;100.00;100530.50;5045297;28;20201;-62
2022/06/05 08:19:48;;;;;;;954.88;896.35;;;21.10;99.90;;;20.67;100.00;100496.56;5031808;28;20211;-62
2022/06/05 08:53:57;;;;;;;883.60;830.63;;;21.40;99.90;;;21.31;100.00;100568.97;5058913;28;20196;-63
2022/06/05 08:56:36;;;;;;;869.92;816.30;;;21.50;99.90;;;21.38;100.00;100575.91;5014607;28;20221;-63
2022/06/05 08:59:32;;;;;;;911.22;855.00;;;21.60;99.90;;;21.57;100.00;100568.97;5058503;28;20224;-63
2022/06/05 09:02:14;;;;;;;875.15;822.13;;;21.70;99.90;;;21.43;100.00;100540.75;4998465;28;20221;-63
2022/06/05 09:04:57;;;;;;;915.22;858.08;;;21.80;99.90;;;21.72;100.00;100557.66;5007780;28;20224;-63
2022/06/05 09:07:42;;;;;;;944.47;886.40;;;22.00;99.90;;;22.09;100.00;100574.38;5029146;28;20540;-63
2022/06/05 09:10:39;;;;;;;963.80;905.25;;;19.30;99.90;;;22.14;100.00;100529.31;5026802;28;20228;-62
2022/06/05 09:13:17;;;;;;;979.75;919.15;;;22.40;99.90;;;22.13;100.00;100538.34;5032655;28;20208;-63
2022/06/05 09:16:03;;;;;;;952.25;893.75;;;22.50;99.90;;;22.38;100.00;100531.09;5031544;28;20204;-64
2022/06/05 09:18:45;;;;;;;970.25;912.35;;;22.60;99.90;;;22.58;100.00;100544.69;5023226;28;20235;-63
2022/06/05 09:21:26;;;;;;;1045.10;979.38;;;23.00;99.90;;;22.89;100.00;100519.25;5041053;28;20239;-63
2022/06/05 09:23:55;;;;;;;1068.28;997.10;;;;;;;23.21;100.00;100520.63;5040755;28;20235;-63
2022/06/05 09:26:54;;;;;;;1074.38;999.78;;;23.10;99.90;;;22.75;100.00;100473.94;5040925;28;20221;-63
2022/06/05 09:29:44;;;;;;;1049.35;984.28;;;23.20;99.90;;;22.83;100.00;100454.78;5043346;28;20204;-63
2022/06/05 09:32:18;;;;;;;1009.72;947.97;;;23.30;99.90;;;22.64;100.00;100450.09;5027883;28;20232;-63
2022/06/05 09:34:56;;;;;;;1051.78;985.85;;;23.40;99.90;;;23.06;100.00;100453.81;5025555;28;20704;-63
2022/06/05 09:37:49;;;;;;;1039.22;975.08;;;23.10;99.90;;;22.77;100.00;100418.13;5021575;28;20201;-63
2022/06/05 09:40:38;;;;;;;998.67;938.55;;;23.20;99.90;;;23.69;100.00;100452.91;5059853;28;20231;-62
2022/06/05 09:43:09;;;;;;;976.42;916.88;;;23.60;99.90;;;22.82;100.00;100383.78;5014191;28;20212;-62
2022/06/05 09:46:03;;;;;;;1021.78;957.53;;;23.50;99.90;;;23.12;100.00;100411.28;5018687;28;20224;-63
2022/06/05 09:48:50;;;;;;;1051.22;985.72;;;24.00;99.90;;;24.08;100.00;100465.53;5045750;28;20217;-62
2022/06/05 09:51:20;;;;;;;1052.78;987.20;;;24.10;99.90;;;23.73;100.00;100369.94;5047037;28;20228;-63
2022/06/05 09:54:01;;;;;;;1035.30;970.05;;;24.60;99.90;;;23.44;100.00;100361.31;5040527;28;20201;-63
2022/06/05 10:00:08;;;;;;;1087.30;999.90;;;25.00;99.90;;;24.36;100.00;100397.59;5015870;28;20201;-63
2022/06/05 10:02:37;;;;;;;1116.22;999.90;;;25.20;99.90;;;23.93;100.00;100353.69;4992370;28;20208;-64
2022/06/05 10:05:24;;;;;;;1122.80;999.90;;;24.10;99.90;;;23.49;100.00;100336.81;5027593;28;20217;-63
2022/06/05 10:08:22;;;;;;;1122.43;999.90;;;24.80;99.90;;;23.24;100.00;100328.91;5030508;28;20221;-63
2022/06/05 10:10:57;;;;;;;1132.78;999.90;;;24.60;99.90;;;23.60;100.00;100359.72;5032266;28;20224;-63
2022/06/05 10:14:13;;;;;;;1139.63;999.90;;;25.10;99.90;;;23.35;100.00;100329.31;5016596;28;20220;-63
2022/06/05 10:16:52;;;;;;;1135.68;999.90;;;24.70;99.90;;;23.41;100.00;100337.16;5049391;28;20208;-63
2022/06/05 10:19:41;;;;;;;1143.13;999.90;;;25.40;99.90;;;23.93;100.00;100368.06;4999744;28;20412;-63
2022/06/05 10:22:23;;;;;;;1146.68;999.90;;;25.70;99.90;;;23.83;100.00;100355.06;5030296;28;20235;-63
2022/06/05 10:25:22;;;;;;;1087.78;999.90;;;25.70;99.90;;;23.83;100.00;100373.97;5020284;28;20573;-63
2022/06/05 10:27:58;;;;;;;1109.82;999.90;;;25.60;99.90;;;23.92;100.00;100385.22;5021177;28;20583;-62
2022/06/05 10:30:38;;;;;;;1072.60;999.20;;;26.10;99.90;;;24.71;100.00;100404.88;5009984;28;20223;-63
2022/06/05 10:33:23;;;;;;;1113.22;999.90;;;26.50;99.90;;;24.86;100.00;100381.59;5015957;28;20219;-63
2022/06/05 10:36:20;;;;;;;1076.82;999.90;;;26.10;99.90;;;24.09;100.00;100306.06;5024586;28;20200;-63
2022/06/05 10:39:08;;;;;;;1098.82;999.90;;;25.40;99.90;;;23.90;100.00;100313.31;5040743;28;20213;-62
2022/06/05 10:41:44;;;;;;;1026.43;960.25;;;25.20;99.90;;;23.97;100.00;100293.16;4993734;28;20220;-62
2022/06/05 10:44:24;;;;;;;973.42;909.00;;;25.20;99.90;;;24.01;100.00;100308.28;5026860;28;20205;-63
2022/06/05 10:46:52;;;;;;;948.17;886.80;;;25.20;99.90;;;24.30;100.00;100336.59;5011939;28;20228;-62
2022/06/05 10:49:34;;;;;;;947.30;884.88;;;24.10;99.90;;;24.24;100.00;100320.66;5025980;28;20213;-63
2022/06/05 10:52:08;;;;;;;947.13;887.00;;;24.90;99.90;;;24.14;100.00;100336.44;5023465;28;20793;-63
2022/06/05 10:55:13;;;;;;;961.30;898.90;;;24.30;99.90;;;23.21;100.00;100250.81;5046991;28;20196;-63
2022/06/05 10:58:00;;;;;;;996.42;932.35;;;24.30;99.90;;;23.69;100.00;100301.72;4989862;28;20647;-63
2022/06/05 11:01:20;;;;;;;1018.95;953.28;;;24.30;99.90;;;23.80;100.00;100307.47;5038441;28;20233;-63